createdAt,value
2019-06-08T12:25:43.244Z,60.40
2019-06-08T12:28:12.598Z,61.00
2019-06-08T12:30:40.730Z,60.20
2019-06-08T12:33:09.805Z,60.30
2019-06-08T12:35:38.807Z,60.80
2019-06-08T12:38:09.654Z,61.30
2019-06-08T12:40:37.845Z,61.10
2019-06-08T12:43:09.381Z,61.10
2019-06-08T12:45:38.640Z,60.60
2019-06-08T12:48:09.826Z,61.30
2019-06-08T12:50:38.625Z,60.70
2019-06-08T12:53:11.223Z,62.20
2019-06-08T12:55:37.745Z,62.30
2019-06-08T12:58:08.151Z,62.80
2019-06-08T13:00:39.020Z,62.40
2019-06-08T13:03:08.606Z,61.60
2019-06-08T13:05:37.960Z,61.80
2019-06-08T13:08:08.426Z,62.10
2019-06-08T13:10:38.193Z,62.20
2019-06-08T13:13:08.468Z,62.20
2019-06-08T13:15:38.457Z,62.00
2019-06-08T13:18:08.649Z,62.50
2019-06-08T13:20:38.762Z,62.40
2019-06-08T13:23:08.711Z,61.80
2019-06-08T13:25:40.103Z,61.40
2019-06-08T13:28:10.916Z,60.80
2019-06-08T13:30:38.828Z,61.20
2019-06-08T13:33:08.070Z,60.60
2019-06-08T13:35:39.245Z,60.70
2019-06-08T13:38:08.698Z,60.80
2019-06-08T13:40:37.782Z,60.60
2019-06-08T13:43:08.160Z,60.70
2019-06-08T13:45:39.022Z,61.40
2019-06-08T13:48:08.724Z,62.00
2019-06-08T13:50:36.646Z,62.40
2019-06-08T13:53:04.653Z,62.50
2019-06-08T13:55:48.389Z,62.40
2019-06-08T13:58:03.065Z,62.50
2019-06-08T14:00:35.079Z,62.40
2019-06-08T14:03:04.088Z,62.00
2019-06-08T14:05:32.260Z,62.70
2019-06-08T14:08:00.682Z,61.90
2019-06-08T14:10:38.630Z,61.70
2019-06-08T14:13:06.521Z,61.40
2019-06-08T14:15:34.668Z,61.20
2019-06-08T14:18:03.148Z,61.40
2019-06-08T14:20:34.428Z,61.40
2019-06-08T14:23:01.547Z,60.90
2019-06-08T14:25:34.181Z,61.20
2019-06-08T14:27:59.764Z,62.00
2019-06-08T14:30:31.084Z,62.20
2019-06-08T14:32:58.054Z,62.00
2019-06-08T14:35:27.107Z,61.90
2019-06-08T14:37:57.908Z,61.90
2019-06-08T14:40:30.967Z,61.80
2019-06-08T14:42:58.112Z,61.60
2019-06-08T14:45:28.902Z,61.40
2019-06-08T14:47:58.571Z,60.80
2019-06-08T14:50:29.275Z,61.10
2019-06-08T14:52:58.809Z,61.40
2019-06-08T14:55:31.641Z,60.60
2019-06-08T14:57:58.015Z,61.00
2019-06-08T15:00:27.727Z,60.60
2019-06-08T15:02:58.629Z,61.20
2019-06-08T15:05:28.920Z,61.40
2019-06-08T15:07:58.159Z,61.00
2019-06-08T15:10:29.355Z,60.60
2019-06-08T15:12:57.779Z,60.50
2019-06-08T15:15:28.878Z,60.40
2019-06-08T15:17:58.299Z,60.30
2019-06-08T15:20:26.345Z,60.30
2019-06-08T15:22:54.589Z,60.40
2019-06-08T15:25:22.731Z,60.30
2019-06-08T15:27:50.969Z,60.60
2019-06-08T15:30:38.279Z,60.70
2019-06-08T15:33:06.543Z,60.80
2019-06-08T15:35:34.783Z,61.50
2019-06-08T15:38:02.851Z,61.90
2019-06-08T15:40:31.893Z,62.10
2019-06-08T15:43:00.034Z,62.20
2019-06-08T15:45:30.974Z,61.70
2019-06-08T15:47:58.747Z,62.00
2019-06-08T15:50:28.408Z,61.40
2019-06-08T15:52:59.834Z,60.80
2019-06-08T15:55:29.852Z,61.20
2019-06-08T15:57:58.455Z,61.30
2019-06-08T16:00:28.337Z,61.20
2019-06-08T16:02:56.616Z,61.30
2019-06-08T16:05:25.602Z,61.20
2019-06-08T16:07:53.836Z,61.30
2019-06-08T16:10:22.069Z,61.00
2019-06-08T16:12:50.308Z,61.00
2019-06-08T16:15:18.422Z,60.60
2019-06-08T16:17:46.672Z,60.50
2019-06-08T16:20:14.932Z,60.90
2019-06-08T16:22:42.991Z,61.30
2019-06-08T16:25:11.094Z,61.80
2019-06-08T16:27:39.242Z,62.10
2019-06-08T16:30:09.515Z,62.00
2019-06-08T16:32:39.734Z,61.60
2019-06-08T16:35:08.155Z,62.40
2019-06-08T16:37:36.386Z,63.10
2019-06-08T16:40:04.752Z,62.10
2019-06-08T16:42:32.881Z,61.20
2019-06-08T16:45:01.251Z,61.60
2019-06-08T16:47:29.588Z,65.40
2019-06-08T16:49:57.915Z,62.40
2019-06-08T16:52:25.974Z,61.00
2019-06-08T16:54:54.515Z,62.80
2019-06-08T16:57:22.624Z,64.00
2019-06-08T16:59:50.815Z,62.80
2019-06-08T17:02:19.139Z,62.50
2019-06-08T17:04:47.465Z,63.50
2019-06-08T17:07:15.565Z,62.80
2019-06-08T17:09:43.852Z,62.90
2019-06-08T17:12:12.089Z,62.80
2019-06-08T17:14:40.708Z,63.00
2019-06-08T17:17:09.133Z,63.50
2019-06-08T17:19:38.459Z,63.60
2019-06-08T17:22:06.714Z,64.00
2019-06-08T17:24:34.953Z,63.40
2019-06-08T17:27:03.188Z,63.70
2019-06-08T17:29:32.714Z,64.00
2019-06-08T17:32:00.995Z,64.80
2019-06-08T17:34:29.236Z,65.00
2019-06-08T17:36:57.405Z,65.50
2019-06-08T17:39:25.610Z,65.20
2019-06-08T17:41:53.753Z,65.20
2019-06-08T17:44:21.925Z,65.60
2019-06-08T17:46:50.239Z,65.50
2019-06-08T17:49:18.511Z,66.50
2019-06-08T17:51:46.752Z,68.90
2019-06-08T17:54:14.955Z,70.00
2019-06-08T17:56:43.457Z,70.60
2019-06-08T17:59:11.791Z,71.00
2019-06-08T18:01:40.091Z,71.00
2019-06-08T18:04:08.318Z,70.60
2019-06-08T18:06:38.649Z,71.50
2019-06-08T18:09:09.833Z,73.00
2019-06-08T18:11:41.474Z,74.50
2019-06-08T18:14:08.522Z,75.50
2019-06-08T18:16:39.391Z,76.10
2019-06-08T18:19:08.771Z,76.20
2019-06-08T18:21:38.943Z,76.70
2019-06-08T18:24:07.802Z,77.00
2019-06-08T18:26:38.549Z,77.20
2019-06-08T18:29:07.933Z,77.60
2019-06-08T18:31:39.519Z,78.00
2019-06-08T18:34:08.266Z,78.70
2019-06-08T18:36:39.123Z,79.90
2019-06-08T18:39:07.190Z,80.80
2019-06-08T18:41:37.843Z,81.70
2019-06-08T18:44:07.944Z,79.90
2019-06-08T18:46:37.578Z,80.50
2019-06-08T18:49:08.043Z,80.50
2019-06-08T18:51:38.142Z,80.70
2019-06-08T18:54:14.360Z,80.70
2019-06-08T18:56:38.711Z,80.90
2019-06-08T18:59:07.703Z,81.30
2019-06-08T19:01:39.084Z,82.30
2019-06-08T19:04:07.619Z,82.50
2019-06-08T19:06:38.723Z,82.90
2019-06-08T19:09:07.603Z,82.10
2019-06-08T19:11:37.725Z,80.60
2019-06-08T19:14:07.166Z,80.20
2019-06-08T19:16:36.987Z,80.70
2019-06-08T19:19:07.285Z,80.40
2019-06-08T19:21:35.164Z,80.50
2019-06-08T19:24:03.379Z,81.10
2019-06-08T19:26:31.625Z,81.50
2019-06-08T19:28:59.803Z,82.10
2019-06-08T19:31:28.010Z,82.40
2019-06-08T19:33:58.111Z,82.30
2019-06-08T19:36:28.382Z,82.40
2019-06-08T19:38:57.702Z,82.40
2019-06-08T19:41:28.083Z,82.40
2019-06-08T19:43:58.211Z,82.20
2019-06-08T19:46:27.161Z,82.60
2019-06-08T19:48:56.419Z,82.40
2019-06-08T19:51:27.615Z,82.20
2019-06-08T19:53:58.033Z,80.40
2019-06-08T19:56:27.961Z,80.00
2019-06-08T19:59:01.737Z,80.00
2019-06-08T20:01:27.674Z,78.30
2019-06-08T20:03:58.010Z,77.70
2019-06-08T20:06:27.767Z,77.90
2019-06-08T20:08:57.571Z,77.30
2019-06-08T20:11:26.071Z,77.40
2019-06-08T20:13:54.265Z,78.10
2019-06-08T20:16:22.715Z,78.30
2019-06-08T20:18:51.695Z,80.20
2019-06-08T20:21:20.927Z,81.00
2019-06-08T20:23:50.801Z,81.40
2019-06-08T20:26:19.095Z,82.20
2019-06-08T20:28:49.781Z,82.30
2019-06-08T20:31:18.026Z,82.10
2019-06-08T20:33:48.164Z,81.80
2019-06-08T20:36:17.469Z,81.30
2019-06-08T20:38:46.388Z,81.10
2019-06-08T20:41:18.131Z,81.70
2019-06-08T20:43:49.138Z,81.20
2019-06-08T20:46:17.185Z,81.30
2019-06-08T20:48:48.433Z,80.80
2019-06-08T20:51:17.258Z,81.20
2019-06-08T20:53:47.845Z,81.00
2019-06-08T20:56:17.371Z,81.60
2019-06-08T20:58:47.916Z,81.30
2019-06-08T21:01:17.883Z,82.00
2019-06-08T21:03:48.160Z,82.30
2019-06-08T21:06:17.143Z,82.70
2019-06-08T21:08:46.605Z,83.40
2019-06-08T21:11:17.487Z,83.90
2019-06-08T21:13:45.693Z,83.70
2019-06-08T21:16:15.191Z,83.80
2019-06-08T21:18:43.307Z,82.60
2019-06-08T21:21:11.795Z,83.00
2019-06-08T21:23:39.918Z,82.80
2019-06-08T21:26:08.135Z,82.10
2019-06-08T21:28:38.417Z,82.30
2019-06-08T21:31:08.362Z,82.50
2019-06-08T21:33:37.952Z,82.80
2019-06-08T21:36:08.786Z,82.20
2019-06-08T21:38:37.719Z,84.20
2019-06-08T21:41:08.253Z,85.80
2019-06-08T21:43:37.462Z,85.90
2019-06-08T21:46:07.784Z,86.10
2019-06-08T21:48:37.991Z,87.90
2019-06-08T21:51:08.030Z,90.60
2019-06-08T21:53:37.985Z,92.90
2019-06-08T21:56:07.661Z,97.50
2019-06-08T21:58:37.811Z,99.90
2019-06-08T22:01:07.353Z,99.90
2019-06-08T22:03:37.902Z,99.90
2019-06-08T22:06:07.965Z,99.90
2019-06-08T22:08:37.505Z,99.90
2019-06-08T22:11:05.473Z,99.90
2019-06-08T22:13:33.851Z,99.90
2019-06-08T22:16:03.990Z,99.90
2019-06-08T22:18:32.049Z,99.90
2019-06-08T22:21:01.162Z,99.90
2019-06-08T22:23:29.517Z,99.90
2019-06-08T22:25:59.563Z,99.90
2019-06-08T22:28:27.753Z,99.90
2019-06-08T22:30:58.471Z,99.90
2019-06-08T22:33:28.075Z,99.90
2019-06-08T22:35:58.541Z,99.90
2019-06-08T22:38:26.031Z,99.90
2019-06-08T22:40:55.242Z,99.90
2019-06-08T22:43:24.252Z,99.90
2019-06-08T22:45:52.896Z,99.90
2019-06-08T22:48:22.395Z,99.90
2019-06-08T22:50:50.721Z,99.90
2019-06-08T22:53:18.954Z,99.90
2019-06-08T22:55:47.623Z,99.90
2019-06-08T22:58:18.775Z,99.90
2019-06-08T23:00:52.749Z,99.90
2019-06-08T23:03:18.415Z,99.90
2019-06-08T23:05:47.691Z,99.90
2019-06-08T23:08:17.649Z,99.90
2019-06-08T23:10:48.077Z,99.90
2019-06-08T23:13:17.981Z,99.90
2019-06-08T23:15:47.961Z,99.90
2019-06-08T23:18:17.925Z,99.90
2019-06-08T23:20:47.957Z,99.90
2019-06-08T23:23:17.857Z,99.90
2019-06-08T23:25:47.860Z,99.90
2019-06-08T23:28:18.069Z,99.90
2019-06-08T23:30:47.786Z,99.90
2019-06-08T23:33:18.641Z,99.90
2019-06-08T23:36:21.729Z,99.90
2019-06-08T23:38:17.272Z,99.90
2019-06-08T23:40:47.460Z,99.90
2019-06-08T23:43:17.929Z,99.90
2019-06-08T23:45:47.464Z,99.90
2019-06-08T23:48:17.376Z,99.90
2019-06-08T23:50:47.379Z,99.90
2019-06-08T23:53:18.032Z,99.90
2019-06-08T23:55:47.721Z,99.90
2019-06-08T23:58:17.541Z,99.90
